createdAt,value
2019-03-08T00:00:09.655Z,994.65
2019-03-08T00:01:09.667Z,994.67
2019-03-08T00:02:09.685Z,994.60
2019-03-08T00:03:09.696Z,994.60
2019-03-08T00:04:09.714Z,994.61
2019-03-08T00:05:09.729Z,994.60
2019-03-08T00:06:09.744Z,994.56
2019-03-08T00:07:09.758Z,994.60
2019-03-08T00:08:09.772Z,994.60
2019-03-08T00:09:09.792Z,994.56
2019-03-08T00:10:09.804Z,994.59
2019-03-08T00:11:09.818Z,994.63
2019-03-08T00:12:09.833Z,994.55
2019-03-08T00:13:09.851Z,994.52
2019-03-08T00:14:09.868Z,994.51
2019-03-08T00:15:09.878Z,994.48
2019-03-08T00:16:09.897Z,994.48
2019-03-08T00:17:09.911Z,994.42
2019-03-08T00:18:09.925Z,994.44
2019-03-08T00:19:10.309Z,994.50
2019-03-08T00:20:09.954Z,994.52
2019-03-08T00:21:09.970Z,994.46
2019-03-08T00:22:09.986Z,994.50
2019-03-08T00:23:10.003Z,994.44
2019-03-08T00:24:10.018Z,994.47
2019-03-08T00:25:10.032Z,994.43
2019-03-08T00:26:10.044Z,994.48
2019-03-08T00:27:10.061Z,994.37
2019-03-08T00:28:10.077Z,994.34
2019-03-08T00:29:10.090Z,994.32
2019-03-08T00:30:10.105Z,994.21
2019-03-08T00:31:10.120Z,994.29
2019-03-08T00:32:10.137Z,994.26
2019-03-08T00:33:10.151Z,994.29
2019-03-08T00:34:10.164Z,994.25
2019-03-08T00:35:10.180Z,994.28
2019-03-08T00:36:10.196Z,994.25
2019-03-08T00:37:10.211Z,994.31
2019-03-08T00:38:10.223Z,994.30
2019-03-08T00:39:10.238Z,994.34
2019-03-08T00:40:10.259Z,994.33
2019-03-08T00:41:10.270Z,994.21
2019-03-08T00:42:10.285Z,994.28
2019-03-08T00:43:10.300Z,994.37
2019-03-08T00:44:10.312Z,994.42
2019-03-08T00:45:10.330Z,994.35
2019-03-08T00:46:10.345Z,994.35
2019-03-08T00:47:10.357Z,994.38
2019-03-08T00:48:10.389Z,994.42
2019-03-08T00:49:10.396Z,994.37
2019-03-08T00:50:10.424Z,994.26
2019-03-08T00:51:10.422Z,994.33
2019-03-08T00:52:10.434Z,994.33
2019-03-08T00:53:10.449Z,994.38
2019-03-08T00:54:10.468Z,994.40
2019-03-08T00:55:10.482Z,994.34
2019-03-08T00:56:10.494Z,994.34
2019-03-08T00:57:10.510Z,994.34
2019-03-08T00:58:10.527Z,994.35
2019-03-08T00:59:10.539Z,994.35
2019-03-08T01:00:10.553Z,994.33
2019-03-08T01:01:10.570Z,994.29
2019-03-08T01:02:10.584Z,994.34
2019-03-08T01:03:10.599Z,994.28
2019-03-08T01:04:10.614Z,994.28
2019-03-08T01:05:10.628Z,994.34
2019-03-08T01:06:10.643Z,994.32
2019-03-08T01:07:10.660Z,994.31
2019-03-08T01:08:10.674Z,994.28
2019-03-08T01:09:10.690Z,994.23
2019-03-08T01:10:10.704Z,994.13
2019-03-08T01:11:10.718Z,994.23
2019-03-08T01:12:10.735Z,994.24
2019-03-08T01:13:10.747Z,994.16
2019-03-08T01:14:10.762Z,994.18
2019-03-08T01:15:10.777Z,994.05
2019-03-08T01:16:10.794Z,994.08
2019-03-08T01:17:10.817Z,994.13
2019-03-08T01:18:10.884Z,994.11
2019-03-08T01:19:10.891Z,994.07
2019-03-08T01:20:10.914Z,994.10
2019-03-08T01:21:10.907Z,994.09
2019-03-08T01:22:10.934Z,994.11
2019-03-08T01:23:10.954Z,994.08
2019-03-08T01:24:10.965Z,994.03
2019-03-08T01:25:10.966Z,994.03
2019-03-08T01:26:10.968Z,994.07
2019-03-08T01:27:10.954Z,994.02
2019-03-08T01:28:10.977Z,994.06
2019-03-08T01:29:10.989Z,994.02
2019-03-08T01:30:11.000Z,994.09
2019-03-08T01:31:11.015Z,994.07
2019-03-08T01:32:11.031Z,994.05
2019-03-08T01:33:11.046Z,994.05
2019-03-08T01:34:11.059Z,994.05
2019-03-08T01:35:11.076Z,994.06
2019-03-08T01:36:11.090Z,994.06
2019-03-08T01:37:11.108Z,994.00
2019-03-08T01:38:11.118Z,994.06
2019-03-08T01:39:11.136Z,993.95
2019-03-08T01:40:11.149Z,993.92
2019-03-08T01:41:11.165Z,993.96
2019-03-08T01:42:11.178Z,993.93
2019-03-08T01:43:11.198Z,993.94
2019-03-08T01:44:11.209Z,993.88
2019-03-08T01:45:11.224Z,993.92
2019-03-08T01:46:11.241Z,993.82
2019-03-08T01:47:11.252Z,993.89
2019-03-08T01:48:11.270Z,993.87
2019-03-08T01:49:11.286Z,993.87
2019-03-08T01:50:11.294Z,993.81
2019-03-08T01:51:11.314Z,993.83
2019-03-08T01:52:11.326Z,993.75
2019-03-08T01:53:11.341Z,993.79
2019-03-08T01:54:11.356Z,993.86
2019-03-08T01:55:11.376Z,993.81
2019-03-08T01:56:11.387Z,993.73
2019-03-08T01:57:11.403Z,993.79
2019-03-08T01:58:11.415Z,993.76
2019-03-08T01:59:11.431Z,993.82
2019-03-08T02:00:11.444Z,993.68
2019-03-08T02:01:11.461Z,993.82
2019-03-08T02:02:11.473Z,993.78
2019-03-08T02:03:11.790Z,993.79
2019-03-08T02:04:11.504Z,993.78
2019-03-08T02:05:11.519Z,993.77
2019-03-08T02:06:11.533Z,993.79
2019-03-08T02:07:11.547Z,993.74
2019-03-08T02:08:11.824Z,993.69
2019-03-08T02:09:11.580Z,993.73
2019-03-08T02:10:11.592Z,993.73
2019-03-08T02:11:11.605Z,993.72
2019-03-08T02:12:11.622Z,993.68
2019-03-08T02:13:11.635Z,993.68
2019-03-08T02:14:11.647Z,993.75
2019-03-08T02:15:11.665Z,993.63
2019-03-08T02:16:11.681Z,993.62
2019-03-08T02:17:11.692Z,993.66
2019-03-08T02:18:11.709Z,993.58
2019-03-08T02:19:11.731Z,993.57
2019-03-08T02:20:11.737Z,993.48
2019-03-08T02:21:11.755Z,993.45
2019-03-08T02:22:11.768Z,993.46
2019-03-08T02:23:11.782Z,993.41
2019-03-08T02:24:11.798Z,993.38
2019-03-08T02:25:11.812Z,993.42
2019-03-08T02:26:11.827Z,993.37
2019-03-08T02:27:11.843Z,993.45
2019-03-08T02:28:11.855Z,993.36
2019-03-08T02:29:11.871Z,993.41
2019-03-08T02:30:11.885Z,993.38
2019-03-08T02:31:11.901Z,993.37
2019-03-08T02:32:11.915Z,993.35
2019-03-08T02:33:11.930Z,993.32
2019-03-08T02:34:11.943Z,993.27
2019-03-08T02:35:11.998Z,993.29
2019-03-08T02:36:11.974Z,993.39
2019-03-08T02:37:11.989Z,993.44
2019-03-08T02:38:12.001Z,993.42
2019-03-08T02:39:12.018Z,993.37
2019-03-08T02:40:12.036Z,993.41
2019-03-08T02:41:12.047Z,993.45
2019-03-08T02:42:12.062Z,993.41
2019-03-08T02:43:12.077Z,993.45
2019-03-08T02:44:12.092Z,993.40
2019-03-08T02:45:12.118Z,993.33
2019-03-08T02:46:12.122Z,993.37
2019-03-08T02:47:12.136Z,993.34
2019-03-08T02:48:12.152Z,993.39
2019-03-08T02:49:12.166Z,993.38
2019-03-08T02:50:12.180Z,993.39
2019-03-08T02:51:12.197Z,993.44
2019-03-08T02:52:12.211Z,993.45
2019-03-08T02:53:12.224Z,993.46
2019-03-08T02:54:12.238Z,993.43
2019-03-08T02:55:12.257Z,993.44
2019-03-08T02:56:12.270Z,993.54
2019-03-08T02:57:12.287Z,993.37
2019-03-08T02:58:12.299Z,993.35
2019-03-08T02:59:12.313Z,993.32
2019-03-08T03:00:12.329Z,993.38
2019-03-08T03:01:12.343Z,993.42
2019-03-08T03:02:12.360Z,993.50
2019-03-08T03:03:12.372Z,993.43
2019-03-08T03:04:12.387Z,993.39
2019-03-08T03:05:12.403Z,993.40
2019-03-08T03:06:12.420Z,993.43
2019-03-08T03:07:12.431Z,993.31
2019-03-08T03:08:12.447Z,993.33
2019-03-08T03:09:12.462Z,993.35
2019-03-08T03:10:12.476Z,993.30
2019-03-08T03:11:12.493Z,993.31
2019-03-08T03:12:12.507Z,993.37
2019-03-08T03:13:12.519Z,993.31
2019-03-08T03:14:12.537Z,993.36
2019-03-08T03:15:12.551Z,993.35
2019-03-08T03:16:12.567Z,993.39
2019-03-08T03:17:12.579Z,993.25
2019-03-08T03:18:12.724Z,993.36
2019-03-08T03:19:12.609Z,993.36
2019-03-08T03:20:12.626Z,993.38
2019-03-08T03:21:12.639Z,993.38
2019-03-08T03:22:12.658Z,993.31
2019-03-08T03:23:12.707Z,993.30
2019-03-08T03:24:12.739Z,993.29
2019-03-08T03:25:12.739Z,993.34
2019-03-08T03:26:12.747Z,993.37
2019-03-08T03:27:12.806Z,993.34
2019-03-08T03:28:12.804Z,993.30
2019-03-08T03:29:12.800Z,993.31
2019-03-08T03:30:12.807Z,993.26
2019-03-08T03:31:12.811Z,993.25
2019-03-08T03:32:12.817Z,993.17
2019-03-08T03:33:12.819Z,993.19
2019-03-08T03:34:12.834Z,993.17
2019-03-08T03:35:12.850Z,993.17
2019-03-08T03:36:12.864Z,993.21
2019-03-08T03:37:12.879Z,993.11
2019-03-08T03:38:12.897Z,993.18
2019-03-08T03:39:12.911Z,993.12
2019-03-08T03:40:12.926Z,993.25
2019-03-08T03:41:12.942Z,993.19
2019-03-08T03:42:12.956Z,993.14
2019-03-08T03:43:12.972Z,993.09
2019-03-08T03:44:12.985Z,992.97
2019-03-08T03:45:12.999Z,993.12
2019-03-08T03:46:13.016Z,993.15
2019-03-08T03:47:13.030Z,993.02
2019-03-08T03:48:13.046Z,993.10
2019-03-08T03:49:13.061Z,993.11
2019-03-08T03:50:13.076Z,993.09
2019-03-08T03:51:13.093Z,993.14
2019-03-08T03:52:13.107Z,993.07
2019-03-08T03:53:13.120Z,993.06
2019-03-08T03:54:13.135Z,993.06
2019-03-08T03:55:13.151Z,993.02
2019-03-08T03:56:13.167Z,993.07
2019-03-08T03:57:13.185Z,993.04
2019-03-08T03:58:13.195Z,993.07
2019-03-08T03:59:13.213Z,992.97
2019-03-08T04:00:13.228Z,993.02
2019-03-08T04:01:13.249Z,993.11
2019-03-08T04:02:13.259Z,993.12
2019-03-08T04:03:13.275Z,993.14
2019-03-08T04:04:13.290Z,993.10
2019-03-08T04:05:13.318Z,993.13
2019-03-08T04:06:13.317Z,993.08
2019-03-08T04:07:13.333Z,992.98
2019-03-08T04:08:13.348Z,993.03
2019-03-08T04:09:13.364Z,993.09
2019-03-08T04:10:13.378Z,992.99
2019-03-08T04:11:13.395Z,993.02
2019-03-08T04:12:13.410Z,992.97
2019-03-08T04:13:13.425Z,992.95
2019-03-08T04:14:13.440Z,992.99
2019-03-08T04:15:13.455Z,993.03
2019-03-08T04:16:13.471Z,992.98
2019-03-08T04:17:13.487Z,992.96
2019-03-08T04:18:13.499Z,992.81
2019-03-08T04:19:13.516Z,992.92
2019-03-08T04:20:13.531Z,992.92
2019-03-08T04:21:13.544Z,992.92
2019-03-08T04:22:13.560Z,992.84
2019-03-08T04:23:13.578Z,992.80
2019-03-08T04:24:13.601Z,992.83
2019-03-08T04:25:13.611Z,992.84
2019-03-08T04:26:13.621Z,992.88
2019-03-08T04:27:13.638Z,992.83
2019-03-08T04:28:13.653Z,992.86
2019-03-08T04:29:13.669Z,992.85
2019-03-08T04:30:13.684Z,992.79
2019-03-08T04:31:13.701Z,992.82
2019-03-08T04:32:13.714Z,992.86
2019-03-08T04:33:13.729Z,992.77
2019-03-08T04:34:13.743Z,992.89
2019-03-08T04:35:13.763Z,992.81
2019-03-08T04:36:13.774Z,992.83
2019-03-08T04:37:13.790Z,992.74
2019-03-08T04:38:13.806Z,992.76
2019-03-08T04:39:13.821Z,992.70
2019-03-08T04:40:13.838Z,992.64
2019-03-08T04:41:13.851Z,992.82
2019-03-08T04:42:13.867Z,992.69
2019-03-08T04:43:13.881Z,992.69
2019-03-08T04:44:13.898Z,992.79
2019-03-08T04:45:13.916Z,992.75
2019-03-08T04:46:13.927Z,992.81
2019-03-08T04:47:13.941Z,992.68
2019-03-08T04:48:13.958Z,992.77
2019-03-08T04:49:13.974Z,992.87
2019-03-08T04:50:13.990Z,992.79
2019-03-08T04:51:14.003Z,992.83
2019-03-08T04:52:14.019Z,992.74
2019-03-08T04:53:14.035Z,992.93
2019-03-08T04:54:14.051Z,992.81
2019-03-08T04:55:14.066Z,992.78
2019-03-08T04:56:14.080Z,992.69
2019-03-08T04:57:14.101Z,992.69
2019-03-08T04:58:14.112Z,992.58
2019-03-08T04:59:14.129Z,992.72
2019-03-08T05:00:14.142Z,992.77
2019-03-08T05:01:14.158Z,992.71
2019-03-08T05:02:14.174Z,992.65
2019-03-08T05:03:14.190Z,992.67
2019-03-08T05:04:14.219Z,992.75
2019-03-08T05:05:14.222Z,992.73
2019-03-08T05:06:14.236Z,992.77
2019-03-08T05:07:14.252Z,992.65
2019-03-08T05:08:14.268Z,992.64
2019-03-08T05:09:14.283Z,992.69
2019-03-08T05:10:14.301Z,992.66
2019-03-08T05:11:14.316Z,992.62
2019-03-08T05:12:14.334Z,992.76
2019-03-08T05:13:14.345Z,992.66
2019-03-08T05:14:14.361Z,992.63
2019-03-08T05:15:14.387Z,992.67
2019-03-08T05:16:14.392Z,992.64
2019-03-08T05:17:14.411Z,992.70
2019-03-08T05:18:14.419Z,992.60
2019-03-08T05:19:14.438Z,992.51
2019-03-08T05:20:14.458Z,992.63
2019-03-08T05:21:14.470Z,992.67
2019-03-08T05:22:14.486Z,992.59
2019-03-08T05:23:14.501Z,992.66
2019-03-08T05:24:14.602Z,992.81
2019-03-08T05:25:14.597Z,992.66
2019-03-08T05:26:14.596Z,992.68
2019-03-08T05:27:14.607Z,992.70
2019-03-08T05:28:14.622Z,992.77
2019-03-08T05:29:14.653Z,992.62
2019-03-08T05:30:14.654Z,992.64
2019-03-08T05:31:14.660Z,992.83
2019-03-08T05:32:14.647Z,992.86
2019-03-08T05:33:14.659Z,992.73
2019-03-08T05:34:14.677Z,992.76
2019-03-08T05:35:14.694Z,992.83
2019-03-08T05:36:14.705Z,992.75
2019-03-08T05:37:14.720Z,992.80
2019-03-08T05:38:14.738Z,992.89
2019-03-08T05:39:14.752Z,992.87
2019-03-08T05:40:14.770Z,992.82
2019-03-08T05:41:14.786Z,992.84
2019-03-08T05:42:14.799Z,992.81
2019-03-08T05:43:14.814Z,992.72
2019-03-08T05:44:14.831Z,992.70
2019-03-08T05:45:14.847Z,992.78
2019-03-08T05:46:14.864Z,992.81
2019-03-08T05:47:14.881Z,992.78
2019-03-08T05:48:14.894Z,992.88
2019-03-08T05:49:14.912Z,992.88
2019-03-08T05:50:14.926Z,992.98
2019-03-08T05:51:14.945Z,992.95
2019-03-08T05:52:14.961Z,992.95
2019-03-08T05:53:14.982Z,992.95
2019-03-08T05:54:14.991Z,993.02
2019-03-08T05:55:15.003Z,992.94
2019-03-08T05:56:15.022Z,993.10
2019-03-08T05:57:15.074Z,992.95
2019-03-08T05:58:15.054Z,993.03
2019-03-08T05:59:15.070Z,993.15
2019-03-08T06:00:15.085Z,993.01
2019-03-08T06:01:15.104Z,992.96
2019-03-08T06:02:15.121Z,993.02
2019-03-08T06:03:15.133Z,992.97
2019-03-08T06:04:15.148Z,993.11
2019-03-08T06:05:15.168Z,993.17
2019-03-08T06:06:15.181Z,993.13
2019-03-08T06:07:15.196Z,993.05
2019-03-08T06:08:15.213Z,992.99
2019-03-08T06:09:15.230Z,993.26
2019-03-08T06:10:15.244Z,993.15
2019-03-08T06:11:15.261Z,993.15
2019-03-08T06:12:15.277Z,993.27
2019-03-08T06:13:15.294Z,993.12
2019-03-08T06:14:15.309Z,993.11
2019-03-08T06:15:15.326Z,993.23
2019-03-08T06:16:15.341Z,993.25
2019-03-08T06:17:15.364Z,993.28
2019-03-08T06:18:15.373Z,993.33
2019-03-08T06:19:15.388Z,993.22
2019-03-08T06:20:15.404Z,993.32
2019-03-08T06:21:15.424Z,993.35
2019-03-08T06:22:15.436Z,993.37
2019-03-08T06:23:15.454Z,993.31
2019-03-08T06:24:15.471Z,993.37
2019-03-08T06:25:15.487Z,993.27
2019-03-08T06:26:15.500Z,993.41
2019-03-08T06:27:15.517Z,993.23
2019-03-08T06:28:15.534Z,993.29
2019-03-08T06:29:15.550Z,993.47
2019-03-08T06:30:15.563Z,993.47
2019-03-08T06:31:15.584Z,993.44
2019-03-08T06:32:15.597Z,993.55
2019-03-08T06:33:15.618Z,993.51
2019-03-08T06:34:15.631Z,993.55
2019-03-08T06:35:15.649Z,993.51
2019-03-08T06:36:15.666Z,993.54
2019-03-08T06:37:15.681Z,993.72
2019-03-08T06:38:15.696Z,993.64
2019-03-08T06:39:15.712Z,993.58
2019-03-08T06:40:15.730Z,993.61
2019-03-08T06:41:15.745Z,993.72
2019-03-08T06:42:15.760Z,993.80
2019-03-08T06:43:15.778Z,993.80
2019-03-08T06:44:15.796Z,993.77
2019-03-08T06:45:16.657Z,993.72
2019-03-08T06:46:15.826Z,993.76
2019-03-08T06:47:15.843Z,993.62
2019-03-08T06:48:15.859Z,993.85
2019-03-08T06:49:15.919Z,993.93
2019-03-08T06:50:15.895Z,993.90
2019-03-08T06:51:15.910Z,993.95
2019-03-08T06:52:15.926Z,993.85
2019-03-08T06:53:15.942Z,993.98
2019-03-08T06:54:15.959Z,993.98
2019-03-08T06:55:15.976Z,993.89
2019-03-08T06:56:15.989Z,994.09
2019-03-08T06:57:16.008Z,994.03
2019-03-08T06:58:16.025Z,994.03
2019-03-08T06:59:16.040Z,994.09
2019-03-08T07:00:16.056Z,994.10
2019-03-08T07:01:16.078Z,994.17
2019-03-08T07:02:16.090Z,994.02
2019-03-08T07:03:16.104Z,994.06
2019-03-08T07:04:16.123Z,994.19
2019-03-08T07:05:16.141Z,994.09
2019-03-08T07:06:16.156Z,994.13
2019-03-08T07:07:16.169Z,994.30
2019-03-08T07:08:16.189Z,994.28
2019-03-08T07:09:16.203Z,994.33
2019-03-08T07:10:16.221Z,994.30
2019-03-08T07:11:16.241Z,994.30
2019-03-08T07:12:16.255Z,994.33
2019-03-08T07:13:16.271Z,994.51
2019-03-08T07:14:16.287Z,994.55
2019-03-08T07:15:16.304Z,994.38
2019-03-08T07:16:16.321Z,994.43
2019-03-08T07:17:16.338Z,994.50
2019-03-08T07:18:16.352Z,994.58
2019-03-08T07:19:16.459Z,994.65
2019-03-08T07:20:16.449Z,994.61
2019-03-08T07:21:16.456Z,994.66
2019-03-08T07:22:16.455Z,994.61
2019-03-08T07:23:16.463Z,994.75
2019-03-08T07:24:16.488Z,994.73
2019-03-08T07:25:16.517Z,994.71
2019-03-08T07:26:16.509Z,994.77
2019-03-08T07:27:16.516Z,994.64
2019-03-08T07:28:16.523Z,994.79
2019-03-08T07:29:16.534Z,994.79
2019-03-08T07:30:16.550Z,994.90
2019-03-08T07:31:16.568Z,994.97
2019-03-08T07:32:17.605Z,994.94
2019-03-08T07:33:16.600Z,994.96
2019-03-08T07:34:16.616Z,994.96
2019-03-08T07:35:16.632Z,994.86
2019-03-08T07:36:16.650Z,995.21
2019-03-08T07:37:16.667Z,994.97
2019-03-08T07:38:16.682Z,994.92
2019-03-08T07:39:16.700Z,995.13
2019-03-08T07:40:16.720Z,995.03
2019-03-08T07:41:16.736Z,995.02
2019-03-08T07:42:16.749Z,995.05
2019-03-08T07:43:16.764Z,995.02
2019-03-08T07:44:16.786Z,995.06
2019-03-08T07:45:16.801Z,995.14
2019-03-08T07:46:16.820Z,995.02
2019-03-08T07:47:16.832Z,995.19
2019-03-08T07:48:16.852Z,995.11
2019-03-08T07:49:16.865Z,995.28
2019-03-08T07:50:16.883Z,995.21
2019-03-08T07:51:16.902Z,995.21
2019-03-08T07:52:16.916Z,995.27
2019-03-08T07:53:16.934Z,995.34
2019-03-08T07:54:16.950Z,995.24
2019-03-08T07:55:16.968Z,995.51
2019-03-08T07:56:16.986Z,995.44
2019-03-08T07:57:16.999Z,995.42
2019-03-08T07:58:17.017Z,995.41
2019-03-08T07:59:17.036Z,995.44
2019-03-08T08:00:17.053Z,995.48
2019-03-08T08:01:17.068Z,995.49
2019-03-08T08:02:17.088Z,995.54
2019-03-08T08:03:17.103Z,995.65
2019-03-08T08:04:17.119Z,995.65
2019-03-08T08:05:17.136Z,995.67
2019-03-08T08:06:17.155Z,995.75
2019-03-08T08:07:17.172Z,995.70
2019-03-08T08:08:17.191Z,995.71
2019-03-08T08:09:17.204Z,995.62
2019-03-08T08:10:17.221Z,995.83
2019-03-08T08:11:17.238Z,995.79
2019-03-08T08:12:17.273Z,995.85
2019-03-08T08:13:17.280Z,995.78
2019-03-08T08:14:17.290Z,995.86
2019-03-08T08:15:17.310Z,995.87
2019-03-08T08:16:17.327Z,995.93
2019-03-08T08:17:17.344Z,995.97
2019-03-08T08:18:17.364Z,995.95
2019-03-08T08:19:17.379Z,996.03
2019-03-08T08:20:17.395Z,995.99
2019-03-08T08:21:17.414Z,996.08
2019-03-08T08:22:17.433Z,996.13
2019-03-08T08:23:17.449Z,996.00
2019-03-08T08:24:17.467Z,996.22
2019-03-08T08:25:17.484Z,996.27
2019-03-08T08:26:17.500Z,996.14
2019-03-08T08:27:17.516Z,996.14
2019-03-08T08:28:17.534Z,996.05
2019-03-08T08:29:17.552Z,996.17
2019-03-08T08:30:17.574Z,996.29
2019-03-08T08:31:17.587Z,996.49
2019-03-08T08:32:17.603Z,996.44
2019-03-08T08:33:17.620Z,996.43
2019-03-08T08:34:17.635Z,996.41
2019-03-08T08:35:17.654Z,996.44
2019-03-08T08:36:17.672Z,996.54
2019-03-08T08:37:17.692Z,996.53
2019-03-08T08:38:17.706Z,996.56
2019-03-08T08:39:17.725Z,996.53
2019-03-08T08:40:17.739Z,996.49
2019-03-08T08:41:17.761Z,996.58
2019-03-08T08:42:17.776Z,996.67
2019-03-08T08:43:17.792Z,996.76
2019-03-08T08:44:17.811Z,996.75
2019-03-08T08:45:17.828Z,996.63
2019-03-08T08:46:17.844Z,996.59
2019-03-08T08:47:17.860Z,996.44
2019-03-08T08:48:17.880Z,996.77
2019-03-08T08:49:17.895Z,996.76
2019-03-08T08:50:17.915Z,996.71
2019-03-08T08:51:17.931Z,996.78
2019-03-08T08:52:17.947Z,996.92
2019-03-08T08:53:17.966Z,996.81
2019-03-08T08:54:17.984Z,996.81
2019-03-08T08:55:18.000Z,996.94
2019-03-08T08:56:18.015Z,996.96
2019-03-08T08:57:18.036Z,996.87
2019-03-08T08:58:18.050Z,996.80
2019-03-08T08:59:18.069Z,996.94
2019-03-08T09:00:18.088Z,996.99
2019-03-08T09:01:18.103Z,997.01
2019-03-08T09:02:18.120Z,997.08
2019-03-08T09:03:18.136Z,997.09
2019-03-08T09:04:18.154Z,997.06
2019-03-08T09:05:18.172Z,996.96
2019-03-08T09:06:18.187Z,997.10
2019-03-08T09:07:18.206Z,997.04
2019-03-08T09:08:18.224Z,997.18
2019-03-08T09:09:18.275Z,997.20
2019-03-08T09:10:18.323Z,997.16
2019-03-08T09:11:18.335Z,997.22
2019-03-08T09:12:18.314Z,997.09
2019-03-08T09:13:18.381Z,997.19
2019-03-08T09:14:18.383Z,997.13
2019-03-08T09:15:18.386Z,997.16
2019-03-08T09:16:18.378Z,997.05
2019-03-08T09:17:18.386Z,997.12
2019-03-08T09:18:18.398Z,997.25
2019-03-08T09:19:18.415Z,997.48
2019-03-08T09:20:18.430Z,997.34
2019-03-08T09:21:18.446Z,997.36
2019-03-08T09:22:18.464Z,997.46
2019-03-08T09:23:18.482Z,997.26
2019-03-08T09:24:18.498Z,997.43
2019-03-08T09:25:18.517Z,997.39
2019-03-08T09:26:18.533Z,997.51
2019-03-08T09:27:18.551Z,997.68
2019-03-08T09:28:18.567Z,997.63
2019-03-08T09:29:18.586Z,997.79
2019-03-08T09:30:18.605Z,997.47
2019-03-08T09:31:18.620Z,997.65
2019-03-08T09:32:18.636Z,997.68
2019-03-08T09:33:18.654Z,997.82
2019-03-08T09:34:18.673Z,997.87
2019-03-08T09:35:18.690Z,997.90
2019-03-08T09:36:18.705Z,997.76
2019-03-08T09:37:18.720Z,997.82
2019-03-08T09:38:18.739Z,997.88
2019-03-08T09:39:18.759Z,997.96
2019-03-08T09:40:18.772Z,998.19
2019-03-08T09:41:18.792Z,997.96
2019-03-08T09:42:18.808Z,998.01
2019-03-08T09:43:18.826Z,998.05
2019-03-08T09:44:18.843Z,998.05
2019-03-08T09:45:18.859Z,998.10
2019-03-08T09:46:18.881Z,998.22
2019-03-08T09:47:18.896Z,998.21
2019-03-08T09:48:18.912Z,998.37
2019-03-08T09:49:18.932Z,998.19
2019-03-08T09:50:18.950Z,998.24
2019-03-08T09:51:18.966Z,998.26
2019-03-08T09:52:18.984Z,998.32
2019-03-08T09:53:19.004Z,998.29
2019-03-08T09:54:19.019Z,998.24
2019-03-08T09:55:19.035Z,998.33
2019-03-08T09:56:19.054Z,998.36
2019-03-08T09:57:19.072Z,998.36
2019-03-08T09:58:19.089Z,998.30
2019-03-08T09:59:19.105Z,998.42
2019-03-08T10:00:19.124Z,998.47
2019-03-08T10:01:19.141Z,998.52
2019-03-08T10:02:19.161Z,998.56
2019-03-08T10:03:19.176Z,998.69
2019-03-08T10:04:19.198Z,998.75
2019-03-08T10:05:19.215Z,998.83
2019-03-08T10:06:19.230Z,998.80
2019-03-08T10:07:19.249Z,998.85
2019-03-08T10:08:19.279Z,998.94
2019-03-08T10:09:19.283Z,998.84
2019-03-08T10:10:19.299Z,999.04
2019-03-08T10:11:19.318Z,999.02
2019-03-08T10:12:19.335Z,999.05
2019-03-08T10:13:19.355Z,999.25
2019-03-08T10:14:19.369Z,999.25
2019-03-08T10:15:19.389Z,999.23
2019-03-08T10:16:19.425Z,999.35
2019-03-08T10:17:19.425Z,999.29
2019-03-08T10:18:19.441Z,999.14
2019-03-08T10:19:19.459Z,999.26
2019-03-08T10:20:19.480Z,999.27
2019-03-08T10:21:19.501Z,999.17
2019-03-08T10:22:19.514Z,999.15
2019-03-08T10:23:20.085Z,999.37
2019-03-08T10:24:19.567Z,999.34
2019-03-08T10:25:19.570Z,999.30
2019-03-08T10:26:19.586Z,999.32
2019-03-08T10:27:19.605Z,999.46
2019-03-08T10:28:19.624Z,999.44
2019-03-08T10:29:19.644Z,999.44
2019-03-08T10:30:19.662Z,999.53
2019-03-08T10:31:19.679Z,999.49
2019-03-08T10:32:19.698Z,999.53
2019-03-08T10:33:19.718Z,999.60
2019-03-08T10:34:19.734Z,999.60
2019-03-08T10:35:23.760Z,999.56
2019-03-08T10:36:19.774Z,999.62
2019-03-08T10:37:19.790Z,999.77
2019-03-08T10:38:22.753Z,999.76
2019-03-08T10:39:19.828Z,999.80
2019-03-08T10:40:19.850Z,999.97
2019-03-08T10:41:19.868Z,999.89
2019-03-08T10:42:19.884Z,999.92
2019-03-08T10:43:19.909Z,1000.00
2019-03-08T10:44:19.924Z,999.97
2019-03-08T10:45:19.948Z,999.82
2019-03-08T10:46:19.962Z,999.88
2019-03-08T10:47:19.985Z,999.94
2019-03-08T10:48:19.999Z,999.87
2019-03-08T10:49:20.022Z,999.98
2019-03-08T10:50:20.039Z,999.92
2019-03-08T10:51:20.058Z,1000.09
2019-03-08T10:52:20.080Z,999.95
2019-03-08T10:53:20.110Z,1000.07
2019-03-08T10:54:20.169Z,1000.06
2019-03-08T10:55:20.184Z,1000.05
2019-03-08T10:56:20.196Z,1000.22
2019-03-08T10:57:20.254Z,1000.15
2019-03-08T10:58:20.256Z,1000.18
2019-03-08T10:59:20.255Z,1000.08
2019-03-08T11:00:20.251Z,1000.13
2019-03-08T11:01:20.255Z,1000.25
2019-03-08T11:02:20.276Z,1000.31
2019-03-08T11:03:20.296Z,1000.21
2019-03-08T11:04:20.314Z,1000.22
2019-03-08T11:05:20.335Z,1000.29
2019-03-08T11:06:20.354Z,1000.26
2019-03-08T11:07:20.372Z,1000.38
2019-03-08T11:08:29.370Z,1000.43
2019-03-08T11:09:20.411Z,1000.36
2019-03-08T11:10:20.430Z,1000.29
2019-03-08T11:11:20.449Z,1000.20
2019-03-08T11:12:20.469Z,1000.15
2019-03-08T11:13:20.490Z,1000.28
2019-03-08T11:14:20.509Z,1000.40
2019-03-08T11:15:24.335Z,1000.50
2019-03-08T11:16:20.546Z,1000.38
2019-03-08T11:17:20.565Z,1000.56
2019-03-08T11:18:20.585Z,1000.62
2019-03-08T11:19:20.603Z,1000.68
2019-03-08T11:20:20.618Z,1000.67
2019-03-08T11:21:20.683Z,1000.64
2019-03-08T11:22:20.658Z,1000.62
2019-03-08T11:23:20.677Z,1000.66
2019-03-08T11:24:20.694Z,1000.64
2019-03-08T11:25:20.710Z,1000.72
2019-03-08T11:26:20.729Z,1000.74
2019-03-08T11:27:20.746Z,1000.86
2019-03-08T11:28:21.280Z,1000.83
2019-03-08T11:29:20.784Z,1000.81
2019-03-08T11:30:21.864Z,1000.81
2019-03-08T11:31:20.817Z,1000.85
2019-03-08T11:32:23.362Z,1000.90
2019-03-08T11:33:20.853Z,1000.99
2019-03-08T11:34:20.866Z,1000.90
2019-03-08T11:35:20.883Z,1001.10
2019-03-08T11:36:20.905Z,1001.20
2019-03-08T11:37:20.919Z,1001.23
2019-03-08T11:38:22.657Z,1001.39
2019-03-08T11:39:20.951Z,1001.38
2019-03-08T11:40:20.969Z,1001.44
2019-03-08T11:41:20.982Z,1001.29
2019-03-08T11:42:20.999Z,1001.39
2019-03-08T11:43:21.016Z,1001.28
2019-03-08T11:44:21.031Z,1001.29
2019-03-08T11:45:21.048Z,1001.28
2019-03-08T11:46:21.061Z,1001.20
2019-03-08T11:47:21.079Z,1001.43
2019-03-08T11:48:21.096Z,1001.45
2019-03-08T11:49:21.112Z,1001.41
2019-03-08T11:50:21.122Z,1001.48
2019-03-08T11:51:21.144Z,1001.48
2019-03-08T11:52:21.158Z,1001.43
2019-03-08T11:53:21.171Z,1001.41
2019-03-08T11:54:21.188Z,1001.40
2019-03-08T11:55:21.202Z,1001.38
2019-03-08T11:56:21.217Z,1001.28
2019-03-08T11:57:21.233Z,1001.32
2019-03-08T11:58:21.250Z,1001.30
2019-03-08T11:59:21.265Z,1001.28
2019-03-08T12:00:21.280Z,1001.35
2019-03-08T12:01:21.301Z,1001.39
2019-03-08T12:02:21.564Z,1001.39
2019-03-08T12:03:21.331Z,1001.43
2019-03-08T12:04:21.345Z,1001.38
2019-03-08T12:05:21.362Z,1001.39
2019-03-08T12:06:21.379Z,1001.52
2019-03-08T12:07:21.403Z,1001.51
2019-03-08T12:08:21.408Z,1001.37
2019-03-08T12:09:21.425Z,1001.40
2019-03-08T12:10:21.445Z,1001.34
2019-03-08T12:11:21.458Z,1001.39
2019-03-08T12:12:21.474Z,1001.47
2019-03-08T12:13:21.490Z,1001.32
2019-03-08T12:14:21.505Z,1001.47
2019-03-08T12:15:21.521Z,1001.42
2019-03-08T12:16:21.539Z,1001.48
2019-03-08T12:17:21.554Z,1001.47
2019-03-08T12:18:21.572Z,1001.57
2019-03-08T12:19:21.586Z,1001.47
2019-03-08T12:20:21.604Z,1001.46
2019-03-08T12:21:21.620Z,1001.57
2019-03-08T12:22:21.636Z,1001.56
2019-03-08T12:23:21.651Z,1001.62
2019-03-08T12:24:21.670Z,1001.61
2019-03-08T12:25:21.685Z,1001.64